sensor_id;sensor_type;location;lat;lon;timestamp;P1;P2;P0
76383;PMS7003;65204;48.606;7.598;2022-12-07T00:00:20;34.33;28.67;17.67
76383;PMS7003;65204;48.606;7.598;2022-12-07T00:00:50;26.00;24.67;15.00
76383;PMS7003;65204;48.606;7.598;2022-12-07T00:01:22;28.67;27.00;17.00
76383;PMS7003;65204;48.606;7.598;2022-12-07T00:01:54;32.00;28.00;19.75
76383;PMS7003;65204;48.606;7.598;2022-12-07T00:02:24;27.33;24.33;15.67
76383;PMS7003;65204;48.606;7.598;2022-12-07T00:02:55;27.00;26.00;17.00
76383;PMS7003;65204;48.606;7.598;2022-12-07T00:03:25;33.00;27.67;17.67
76383;PMS7003;65204;48.606;7.598;2022-12-07T00:03:57;33.00;24.00;16.00
76383;PMS7003;65204;48.606;7.598;2022-12-07T00:04:35;29.25;22.50;15.00
76383;PMS7003;65204;48.606;7.598;2022-12-07T00:05:06;34.33;28.33;17.67
76383;PMS7003;65204;48.606;7.598;2022-12-07T00:05:36;30.00;26.33;18.00
76383;PMS7003;65204;48.606;7.598;2022-12-07T00:06:07;25.33;22.00;14.00
76383;PMS7003;65204;48.606;7.598;2022-12-07T00:06:40;28.00;27.00;17.00
76383;PMS7003;65204;48.606;7.598;2022-12-07T00:07:11;35.67;27.00;17.33
76383;PMS7003;65204;48.606;7.598;2022-12-07T00:07:42;18.67;15.33;8.33
76383;PMS7003;65204;48.606;7.598;2022-12-07T00:08:12;35.67;30.67;17.33
76383;PMS7003;65204;48.606;7.598;2022-12-07T00:08:43;26.33;22.00;9.00
76383;PMS7003;65204;48.606;7.598;2022-12-07T00:09:15;29.33;24.00;17.00
76383;PMS7003;65204;48.606;7.598;2022-12-07T00:09:47;26.00;25.00;17.67
76383;PMS7003;65204;48.606;7.598;2022-12-07T00:10:17;27.33;24.33;15.67
76383;PMS7003;65204;48.606;7.598;2022-12-07T00:10:47;28.00;24.00;15.00
76383;PMS7003;65204;48.606;7.598;2022-12-07T00:11:18;28.67;24.67;16.00
76383;PMS7003;65204;48.606;7.598;2022-12-07T00:11:53;24.33;22.00;15.00
76383;PMS7003;65204;48.606;7.598;2022-12-07T00:12:23;29.33;25.00;15.00
76383;PMS7003;65204;48.606;7.598;2022-12-07T00:12:54;28.00;21.00;13.33
76383;PMS7003;65204;48.606;7.598;2022-12-07T00:13:24;23.00;21.33;13.33
76383;PMS7003;65204;48.606;7.598;2022-12-07T00:13:55;21.33;17.33;13.00
76383;PMS7003;65204;48.606;7.598;2022-12-07T00:14:27;24.75;21.50;14.50
76383;PMS7003;65204;48.606;7.598;2022-12-07T00:14:58;27.67;23.67;13.33
76383;PMS7003;65204;48.606;7.598;2022-12-07T00:15:28;13.00;11.67;5.00
76383;PMS7003;65204;48.606;7.598;2022-12-07T00:16:02;29.00;24.33;14.67
76383;PMS7003;65204;48.606;7.598;2022-12-07T00:16:33;25.75;25.25;16.00
76383;PMS7003;65204;48.606;7.598;2022-12-07T00:17:04;25.33;23.33;15.67
76383;PMS7003;65204;48.606;7.598;2022-12-07T00:17:35;23.67;22.00;15.00
76383;PMS7003;65204;48.606;7.598;2022-12-07T00:18:05;26.67;21.67;12.00
76383;PMS7003;65204;48.606;7.598;2022-12-07T00:18:36;19.33;18.67;13.67
76383;PMS7003;65204;48.606;7.598;2022-12-07T00:19:07;23.75;21.25;14.00
76383;PMS7003;65204;48.606;7.598;2022-12-07T00:19:37;19.33;18.67;13.67
76383;PMS7003;65204;48.606;7.598;2022-12-07T00:20:07;24.67;21.67;15.67
76383;PMS7003;65204;48.606;7.598;2022-12-07T00:20:38;26.67;24.33;16.33
76383;PMS7003;65204;48.606;7.598;2022-12-07T00:21:12;25.33;23.00;15.00
76383;PMS7003;65204;48.606;7.598;2022-12-07T00:21:44;21.50;19.75;14.00
76383;PMS7003;65204;48.606;7.598;2022-12-07T00:22:14;27.00;23.33;14.67
76383;PMS7003;65204;48.606;7.598;2022-12-07T00:22:45;33.67;24.33;16.00
76383;PMS7003;65204;48.606;7.598;2022-12-07T00:23:15;27.00;23.67;16.00
76383;PMS7003;65204;48.606;7.598;2022-12-07T00:23:46;25.67;22.00;13.00
76383;PMS7003;65204;48.606;7.598;2022-12-07T00:24:18;24.50;21.50;14.00
76383;PMS7003;65204;48.606;7.598;2022-12-07T00:24:49;24.67;20.33;14.00
76383;PMS7003;65204;48.606;7.598;2022-12-07T00:25:19;23.67;22.33;15.33
76383;PMS7003;65204;48.606;7.598;2022-12-07T00:25:49;32.00;27.00;17.33
76383;PMS7003;65204;48.606;7.598;2022-12-07T00:26:21;22.00;21.00;13.00
76383;PMS7003;65204;48.606;7.598;2022-12-07T00:26:52;25.25;25.25;15.00
76383;PMS7003;65204;48.606;7.598;2022-12-07T00:27:23;33.67;23.67;14.00
76383;PMS7003;65204;48.606;7.598;2022-12-07T00:27:53;24.00;21.00;14.00
76383;PMS7003;65204;48.606;7.598;2022-12-07T00:28:27;24.25;21.75;13.50
76383;PMS7003;65204;48.606;7.598;2022-12-07T00:29:00;26.67;25.67;17.00
76383;PMS7003;65204;48.606;7.598;2022-12-07T00:29:41;30.50;26.25;15.25
76383;PMS7003;65204;48.606;7.598;2022-12-07T00:30:12;30.33;24.00;16.00
76383;PMS7003;65204;48.606;7.598;2022-12-07T00:30:42;27.33;24.00;15.33
76383;PMS7003;65204;48.606;7.598;2022-12-07T00:31:13;22.67;20.00;10.67
76383;PMS7003;65204;48.606;7.598;2022-12-07T00:31:45;27.75;23.25;14.25
76383;PMS7003;65204;48.606;7.598;2022-12-07T00:32:16;24.75;22.25;13.25
76383;PMS7003;65204;48.606;7.598;2022-12-07T00:32:46;28.33;21.67;14.67
76383;PMS7003;65204;48.606;7.598;2022-12-07T00:33:17;23.00;19.67;14.00
76383;PMS7003;65204;48.606;7.598;2022-12-07T00:33:47;29.00;23.67;14.00
76383;PMS7003;65204;48.606;7.598;2022-12-07T00:34:18;22.00;20.33;13.00
76383;PMS7003;65204;48.606;7.598;2022-12-07T00:34:50;23.75;20.50;13.50
76383;PMS7003;65204;48.606;7.598;2022-12-07T00:35:20;27.33;22.33;14.00
76383;PMS7003;65204;48.606;7.598;2022-12-07T00:35:57;29.00;21.33;15.33
76383;PMS7003;65204;48.606;7.598;2022-12-07T00:36:29;22.50;19.50;15.00
76383;PMS7003;65204;48.606;7.598;2022-12-07T00:36:59;10.00;2.00;0.00
76383;PMS7003;65204;48.606;7.598;2022-12-07T00:37:29;27.67;24.00;14.67
76383;PMS7003;65204;48.606;7.598;2022-12-07T00:38:00;26.00;24.67;14.67
76383;PMS7003;65204;48.606;7.598;2022-12-07T00:38:31;24.67;23.33;16.00
76383;PMS7003;65204;48.606;7.598;2022-12-07T00:39:02;17.25;15.75;9.50
76383;PMS7003;65204;48.606;7.598;2022-12-07T00:39:33;25.67;22.33;15.00
76383;PMS7003;65204;48.606;7.598;2022-12-07T00:40:04;25.67;20.67;14.67
76383;PMS7003;65204;48.606;7.598;2022-12-07T00:40:35;21.00;17.75;12.50
76383;PMS7003;65204;48.606;7.598;2022-12-07T00:41:06;30.67;25.00;14.00
76383;PMS7003;65204;48.606;7.598;2022-12-07T00:41:41;21.75;17.50;13.00
76383;PMS7003;65204;48.606;7.598;2022-12-07T00:42:12;22.33;20.00;13.33
76383;PMS7003;65204;48.606;7.598;2022-12-07T00:42:42;29.33;22.67;15.33
76383;PMS7003;65204;48.606;7.598;2022-12-07T00:43:12;29.67;22.00;14.00
76383;PMS7003;65204;48.606;7.598;2022-12-07T00:43:43;26.00;23.00;16.00
76383;PMS7003;65204;48.606;7.598;2022-12-07T00:44:14;21.50;20.00;13.75
76383;PMS7003;65204;48.606;7.598;2022-12-07T00:44:45;22.33;20.00;12.33
76383;PMS7003;65204;48.606;7.598;2022-12-07T00:45:15;21.00;19.00;14.00
76383;PMS7003;65204;48.606;7.598;2022-12-07T00:45:45;24.33;19.67;12.67
76383;PMS7003;65204;48.606;7.598;2022-12-07T00:46:16;26.67;22.67;14.67
76383;PMS7003;65204;48.606;7.598;2022-12-07T00:46:48;23.00;22.25;14.75
76383;PMS7003;65204;48.606;7.598;2022-12-07T00:47:18;21.00;16.00;11.67
76383;PMS7003;65204;48.606;7.598;2022-12-07T00:47:48;16.33;14.33;10.00
76383;PMS7003;65204;48.606;7.598;2022-12-07T00:48:19;17.33;16.33;9.33
76383;PMS7003;65204;48.606;7.598;2022-12-07T00:48:50;21.75;20.00;13.00
76383;PMS7003;65204;48.606;7.598;2022-12-07T00:49:22;21.50;19.00;12.00
76383;PMS7003;65204;48.606;7.598;2022-12-07T00:49:52;19.33;17.67;11.67
76383;PMS7003;65204;48.606;7.598;2022-12-07T00:50:23;23.33;22.00;16.00
76383;PMS7003;65204;48.606;7.598;2022-12-07T00:50:53;22.33;20.00;12.67
76383;PMS7003;65204;48.606;7.598;2022-12-07T00:51:24;31.33;23.00;15.00
76383;PMS7003;65204;48.606;7.598;2022-12-07T00:51:55;18.25;18.25;10.75
76383;PMS7003;65204;48.606;7.598;2022-12-07T00:52:25;25.00;23.67;15.67
76383;PMS7003;65204;48.606;7.598;2022-12-07T00:52:55;19.33;16.33;11.00
76383;PMS7003;65204;48.606;7.598;2022-12-07T00:53:26;19.00;19.00;14.33
76383;PMS7003;65204;48.606;7.598;2022-12-07T00:53:57;20.25;19.00;11.25
76383;PMS7003;65204;48.606;7.598;2022-12-07T00:54:27;21.00;17.00;12.00
76383;PMS7003;65204;48.606;7.598;2022-12-07T00:54:58;25.33;19.67;14.67
76383;PMS7003;65204;48.606;7.598;2022-12-07T00:55:32;22.33;19.00;14.00
76383;PMS7003;65204;48.606;7.598;2022-12-07T00:56:20;26.00;22.75;14.75
76383;PMS7003;65204;48.606;7.598;2022-12-07T00:56:52;27.00;21.25;14.25
76383;PMS7003;65204;48.606;7.598;2022-12-07T00:57:22;20.00;16.00;12.00
76383;PMS7003;65204;48.606;7.598;2022-12-07T00:57:53;20.67;20.67;14.00
76383;PMS7003;65204;48.606;7.598;2022-12-07T00:58:23;24.67;22.33;13.00
76383;PMS7003;65204;48.606;7.598;2022-12-07T00:58:54;20.00;18.00;11.33
76383;PMS7003;65204;48.606;7.598;2022-12-07T00:59:26;19.50;17.00;11.75
76383;PMS7003;65204;48.606;7.598;2022-12-07T00:59:57;22.67;19.00;13.00
76383;PMS7003;65204;48.606;7.598;2022-12-07T01:00:27;24.67;20.67;12.67
76383;PMS7003;65204;48.606;7.598;2022-12-07T01:00:59;23.00;19.67;14.33
76383;PMS7003;65204;48.606;7.598;2022-12-07T01:01:33;21.00;19.75;13.00
76383;PMS7003;65204;48.606;7.598;2022-12-07T01:02:04;20.75;19.00;11.00
76383;PMS7003;65204;48.606;7.598;2022-12-07T01:02:35;23.00;21.00;14.67
76383;PMS7003;65204;48.606;7.598;2022-12-07T01:03:06;26.00;18.67;12.00
76383;PMS7003;65204;48.606;7.598;2022-12-07T01:03:38;21.75;19.25;13.25
76383;PMS7003;65204;48.606;7.598;2022-12-07T01:04:08;23.00;21.00;14.00
76383;PMS7003;65204;48.606;7.598;2022-12-07T01:04:39;23.00;19.67;15.00
76383;PMS7003;65204;48.606;7.598;2022-12-07T01:05:09;24.33;20.67;13.00
76383;PMS7003;65204;48.606;7.598;2022-12-07T01:05:40;27.00;21.33;15.33
76383;PMS7003;65204;48.606;7.598;2022-12-07T01:06:19;23.25;21.50;13.00
76383;PMS7003;65204;48.606;7.598;2022-12-07T01:06:50;19.75;17.25;12.25
76383;PMS7003;65204;48.606;7.598;2022-12-07T01:07:21;19.00;15.67;8.00
76383;PMS7003;65204;48.606;7.598;2022-12-07T01:07:51;19.67;17.33;12.00
76383;PMS7003;65204;48.606;7.598;2022-12-07T01:08:22;23.33;19.00;10.00
76383;PMS7003;65204;48.606;7.598;2022-12-07T01:08:53;24.25;22.25;13.75
76383;PMS7003;65204;48.606;7.598;2022-12-07T01:09:24;24.33;18.67;15.33
76383;PMS7003;65204;48.606;7.598;2022-12-07T01:09:54;26.00;23.00;14.33
76383;PMS7003;65204;48.606;7.598;2022-12-07T01:10:25;24.33;23.33;14.33
76383;PMS7003;65204;48.606;7.598;2022-12-07T01:11:07;20.67;19.33;11.67
76383;PMS7003;65204;48.606;7.598;2022-12-07T01:11:39;21.25;17.00;11.25
76383;PMS7003;65204;48.606;7.598;2022-12-07T01:12:10;19.67;18.00;14.00
76383;PMS7003;65204;48.606;7.598;2022-12-07T01:12:40;22.00;20.33;15.33
76383;PMS7003;65204;48.606;7.598;2022-12-07T01:13:11;22.67;22.67;11.67
76383;PMS7003;65204;48.606;7.598;2022-12-07T01:13:41;21.67;21.67;16.00
76383;PMS7003;65204;48.606;7.598;2022-12-07T01:14:12;21.25;18.00;12.75
76383;PMS7003;65204;48.606;7.598;2022-12-07T01:14:42;23.33;21.33;12.67
76383;PMS7003;65204;48.606;7.598;2022-12-07T01:15:13;22.33;20.67;13.00
76383;PMS7003;65204;48.606;7.598;2022-12-07T01:15:43;23.33;19.00;13.67
76383;PMS7003;65204;48.606;7.598;2022-12-07T01:16:16;25.50;21.75;14.00
76383;PMS7003;65204;48.606;7.598;2022-12-07T01:16:47;21.25;19.25;11.75
76383;PMS7003;65204;48.606;7.598;2022-12-07T01:17:17;15.00;13.33;7.33
76383;PMS7003;65204;48.606;7.598;2022-12-07T01:17:47;21.00;20.00;15.67
76383;PMS7003;65204;48.606;7.598;2022-12-07T01:18:18;23.00;20.00;13.67
76383;PMS7003;65204;48.606;7.598;2022-12-07T01:18:49;19.00;18.00;12.00
76383;PMS7003;65204;48.606;7.598;2022-12-07T01:19:20;24.50;20.00;13.75
76383;PMS7003;65204;48.606;7.598;2022-12-07T01:19:51;24.00;20.00;15.00
76383;PMS7003;65204;48.606;7.598;2022-12-07T01:20:21;21.33;19.33;11.67
76383;PMS7003;65204;48.606;7.598;2022-12-07T01:21:25;33.00;22.00;16.00
76383;PMS7003;65204;48.606;7.598;2022-12-07T01:21:52;23.25;17.50;12.00
76383;PMS7003;65204;48.606;7.598;2022-12-07T01:22:22;24.00;17.00;10.00
76383;PMS7003;65204;48.606;7.598;2022-12-07T01:22:53;17.00;15.33;11.00
76383;PMS7003;65204;48.606;7.598;2022-12-07T01:23:23;21.33;20.00;14.00
76383;PMS7003;65204;48.606;7.598;2022-12-07T01:23:54;27.33;21.67;13.33
76383;PMS7003;65204;48.606;7.598;2022-12-07T01:24:27;26.75;21.00;14.00
76383;PMS7003;65204;48.606;7.598;2022-12-07T01:24:58;21.67;16.33;12.33
76383;PMS7003;65204;48.606;7.598;2022-12-07T01:25:28;23.00;20.33;14.33
76383;PMS7003;65204;48.606;7.598;2022-12-07T01:26:00;23.67;19.33;13.00
76383;PMS7003;65204;48.606;7.598;2022-12-07T01:26:32;20.25;20.00;12.25
76383;PMS7003;65204;48.606;7.598;2022-12-07T01:27:03;21.33;18.00;11.33
76383;PMS7003;65204;48.606;7.598;2022-12-07T01:27:33;19.33;17.33;11.33
76383;PMS7003;65204;48.606;7.598;2022-12-07T01:28:04;16.50;16.25;9.00
76383;PMS7003;65204;48.606;7.598;2022-12-07T01:28:35;19.67;15.67;11.33
76383;PMS7003;65204;48.606;7.598;2022-12-07T01:29:05;19.67;17.00;13.33
76383;PMS7003;65204;48.606;7.598;2022-12-07T01:29:36;20.67;20.00;11.33
76383;PMS7003;65204;48.606;7.598;2022-12-07T01:30:06;22.33;19.00;12.67
76383;PMS7003;65204;48.606;7.598;2022-12-07T01:30:37;23.33;19.00;12.00
76383;PMS7003;65204;48.606;7.598;2022-12-07T01:31:08;20.33;19.67;13.00
76383;PMS7003;65204;48.606;7.598;2022-12-07T01:31:48;19.75;18.25;12.50
76383;PMS7003;65204;48.606;7.598;2022-12-07T01:32:19;21.50;15.00;7.00
76383;PMS7003;65204;48.606;7.598;2022-12-07T01:32:50;16.75;13.25;6.50
76383;PMS7003;65204;48.606;7.598;2022-12-07T01:33:20;22.67;18.00;13.00
76383;PMS7003;65204;48.606;7.598;2022-12-07T01:33:52;18.00;15.00;10.00
76383;PMS7003;65204;48.606;7.598;2022-12-07T01:34:24;20.75;16.50;12.25
76383;PMS7003;65204;48.606;7.598;2022-12-07T01:34:54;23.00;19.67;12.00
76383;PMS7003;65204;48.606;7.598;2022-12-07T01:35:24;18.67;18.33;10.00
76383;PMS7003;65204;48.606;7.598;2022-12-07T01:36:00;17.67;16.67;9.00
76383;PMS7003;65204;48.606;7.598;2022-12-07T01:36:51;20.75;20.75;13.00
76383;PMS7003;65204;48.606;7.598;2022-12-07T01:37:21;24.00;19.00;11.67
76383;PMS7003;65204;48.606;7.598;2022-12-07T01:37:51;19.00;16.00;11.00
76383;PMS7003;65204;48.606;7.598;2022-12-07T01:38:22;22.00;19.33;12.00
76383;PMS7003;65204;48.606;7.598;2022-12-07T01:39:03;18.33;16.33;10.33
76383;PMS7003;65204;48.606;7.598;2022-12-07T01:39:35;19.50;15.75;12.00
76383;PMS7003;65204;48.606;7.598;2022-12-07T01:40:06;28.33;19.33;11.00
76383;PMS7003;65204;48.606;7.598;2022-12-07T01:40:38;20.25;16.00;11.25
76383;PMS7003;65204;48.606;7.598;2022-12-07T01:41:08;24.00;19.33;13.33
76383;PMS7003;65204;48.606;7.598;2022-12-07T01:41:40;23.00;21.33;14.00
76383;PMS7003;65204;48.606;7.598;2022-12-07T01:42:13;21.75;19.25;12.50
76383;PMS7003;65204;48.606;7.598;2022-12-07T01:42:43;21.67;19.00;12.00
76383;PMS7003;65204;48.606;7.598;2022-12-07T01:43:17;17.67;15.33;9.33
76383;PMS7003;65204;48.606;7.598;2022-12-07T01:45:45;20.50;17.75;13.25
76383;PMS7003;65204;48.606;7.598;2022-12-07T01:46:16;19.33;18.33;13.33
76383;PMS7003;65204;48.606;7.598;2022-12-07T01:46:47;26.33;22.33;13.33
76383;PMS7003;65204;48.606;7.598;2022-12-07T01:47:19;21.25;18.50;12.00
76383;PMS7003;65204;48.606;7.598;2022-12-07T01:47:51;20.33;16.00;11.33
76383;PMS7003;65204;48.606;7.598;2022-12-07T01:48:35;23.75;19.75;12.75
76383;PMS7003;65204;48.606;7.598;2022-12-07T01:49:11;21.75;18.25;12.50
76383;PMS7003;65204;48.606;7.598;2022-12-07T01:49:47;23.00;18.75;12.00
76383;PMS7003;65204;48.606;7.598;2022-12-07T01:50:19;20.25;19.50;12.00
76383;PMS7003;65204;48.606;7.598;2022-12-07T01:50:54;23.00;16.75;11.75
76383;PMS7003;65204;48.606;7.598;2022-12-07T01:51:27;23.50;18.50;13.25
76383;PMS7003;65204;48.606;7.598;2022-12-07T01:52:05;21.67;18.33;11.00
76383;PMS7003;65204;48.606;7.598;2022-12-07T01:52:39;20.50;19.25;13.00
76383;PMS7003;65204;48.606;7.598;2022-12-07T01:53:11;19.50;19.00;10.50
76383;PMS7003;65204;48.606;7.598;2022-12-07T01:53:43;21.00;14.25;11.00
76383;PMS7003;65204;48.606;7.598;2022-12-07T01:54:15;17.00;16.00;10.50
76383;PMS7003;65204;48.606;7.598;2022-12-07T01:54:47;16.00;16.00;12.25
76383;PMS7003;65204;48.606;7.598;2022-12-07T01:55:21;16.50;16.50;11.25
76383;PMS7003;65204;48.606;7.598;2022-12-07T01:55:52;15.33;15.33;9.67
76383;PMS7003;65204;48.606;7.598;2022-12-07T01:56:24;23.25;22.25;13.75
76383;PMS7003;65204;48.606;7.598;2022-12-07T01:56:57;21.33;18.00;11.00
76383;PMS7003;65204;48.606;7.598;2022-12-07T01:57:28;19.50;18.25;13.50
76383;PMS7003;65204;48.606;7.598;2022-12-07T01:58:01;9.75;8.00;2.00
76383;PMS7003;65204;48.606;7.598;2022-12-07T01:58:31;19.33;16.00;10.00
76383;PMS7003;65204;48.606;7.598;2022-12-07T01:59:01;19.33;18.00;11.00
76383;PMS7003;65204;48.606;7.598;2022-12-07T01:59:32;19.00;16.00;11.00
76383;PMS7003;65204;48.606;7.598;2022-12-07T02:00:04;21.75;17.00;11.75
76383;PMS7003;65204;48.606;7.598;2022-12-07T02:00:35;16.50;15.75;10.25
76383;PMS7003;65204;48.606;7.598;2022-12-07T02:01:06;12.00;11.00;9.00
76383;PMS7003;65204;48.606;7.598;2022-12-07T02:01:37;16.67;13.67;9.00
76383;PMS7003;65204;48.606;7.598;2022-12-07T02:02:08;22.00;19.33;11.00
76383;PMS7003;65204;48.606;7.598;2022-12-07T02:02:48;16.75;15.00;11.25
76383;PMS7003;65204;48.606;7.598;2022-12-07T02:03:27;20.00;15.50;11.25
76383;PMS7003;65204;48.606;7.598;2022-12-07T02:04:04;19.00;16.50;12.25
76383;PMS7003;65204;48.606;7.598;2022-12-07T02:04:36;20.50;18.25;13.00
76383;PMS7003;65204;48.606;7.598;2022-12-07T02:05:06;19.00;18.00;12.33
76383;PMS7003;65204;48.606;7.598;2022-12-07T02:05:38;17.67;15.00;11.67
76383;PMS7003;65204;48.606;7.598;2022-12-07T02:06:12;17.00;16.00;12.00
76383;PMS7003;65204;48.606;7.598;2022-12-07T02:06:49;18.25;15.25;9.75
76383;PMS7003;65204;48.606;7.598;2022-12-07T02:07:20;18.50;18.00;9.75
76383;PMS7003;65204;48.606;7.598;2022-12-07T02:07:54;17.75;16.00;10.00
76383;PMS7003;65204;48.606;7.598;2022-12-07T02:08:25;20.00;15.25;11.75
76383;PMS7003;65204;48.606;7.598;2022-12-07T02:08:56;19.33;16.00;10.00
76383;PMS7003;65204;48.606;7.598;2022-12-07T02:09:26;21.33;21.00;12.00
76383;PMS7003;65204;48.606;7.598;2022-12-07T02:09:57;20.33;18.33;11.33
76383;PMS7003;65204;48.606;7.598;2022-12-07T02:10:28;18.67;15.33;11.00
76383;PMS7003;65204;48.606;7.598;2022-12-07T02:11:02;18.25;16.00;10.50
76383;PMS7003;65204;48.606;7.598;2022-12-07T02:11:34;21.00;12.75;8.75
76383;PMS7003;65204;48.606;7.598;2022-12-07T02:12:04;20.67;19.67;11.67
76383;PMS7003;65204;48.606;7.598;2022-12-07T02:12:36;14.50;12.75;9.25
76383;PMS7003;65204;48.606;7.598;2022-12-07T02:13:13;19.00;19.00;12.00
76383;PMS7003;65204;48.606;7.598;2022-12-07T02:13:48;17.00;15.00;11.33
76383;PMS7003;65204;48.606;7.598;2022-12-07T02:14:19;19.00;17.00;11.00
76383;PMS7003;65204;48.606;7.598;2022-12-07T02:14:50;17.33;16.00;10.33
76383;PMS7003;65204;48.606;7.598;2022-12-07T02:15:21;21.67;16.33;11.00
76383;PMS7003;65204;48.606;7.598;2022-12-07T02:16:09;13.75;13.75;10.25
76383;PMS7003;65204;48.606;7.598;2022-12-07T02:18:11;17.75;14.25;9.50
76383;PMS7003;65204;48.606;7.598;2022-12-07T02:19:17;16.25;14.25;9.00
76383;PMS7003;65204;48.606;7.598;2022-12-07T02:20:30;15.00;13.50;9.25
76383;PMS7003;65204;48.606;7.598;2022-12-07T02:21:23;19.50;15.00;10.50
76383;PMS7003;65204;48.606;7.598;2022-12-07T02:23:00;12.50;9.00;5.00
76383;PMS7003;65204;48.606;7.598;2022-12-07T02:24:42;17.75;15.75;10.00
76383;PMS7003;65204;48.606;7.598;2022-12-07T02:28:28;17.00;16.50;11.00
76383;PMS7003;65204;48.606;7.598;2022-12-07T02:30:40;15.00;15.00;9.50
76383;PMS7003;65204;48.606;7.598;2022-12-07T02:31:18;13.25;11.00;9.50
76383;PMS7003;65204;48.606;7.598;2022-12-07T02:32:26;13.25;11.75;6.50
76383;PMS7003;65204;48.606;7.598;2022-12-07T02:33:02;15.25;14.00;9.50
76383;PMS7003;65204;48.606;7.598;2022-12-07T02:33:36;16.00;14.25;8.00
76383;PMS7003;65204;48.606;7.598;2022-12-07T02:34:58;20.00;15.75;9.75
76383;PMS7003;65204;48.606;7.598;2022-12-07T02:35:40;20.75;14.00;9.25
76383;PMS7003;65204;48.606;7.598;2022-12-07T02:36:18;17.00;12.00;8.75
76383;PMS7003;65204;48.606;7.598;2022-12-07T02:36:57;15.25;13.50;10.75
76383;PMS7003;65204;48.606;7.598;2022-12-07T02:38:27;15.75;12.25;9.00
76383;PMS7003;65204;48.606;7.598;2022-12-07T02:39:11;15.50;14.00;9.25
76383;PMS7003;65204;48.606;7.598;2022-12-07T02:39:55;14.00;12.00;8.00
76383;PMS7003;65204;48.606;7.598;2022-12-07T02:40:40;15.75;12.75;7.75
76383;PMS7003;65204;48.606;7.598;2022-12-07T02:41:13;11.75;7.50;5.25
76383;PMS7003;65204;48.606;7.598;2022-12-07T02:41:55;12.25;10.50;7.00
76383;PMS7003;65204;48.606;7.598;2022-12-07T02:42:34;16.25;11.75;8.50
76383;PMS7003;65204;48.606;7.598;2022-12-07T02:43:24;10.50;10.25;5.50
76383;PMS7003;65204;48.606;7.598;2022-12-07T02:44:09;13.50;13.00;9.50
76383;PMS7003;65204;48.606;7.598;2022-12-07T02:44:42;9.75;9.50;6.75
76383;PMS7003;65204;48.606;7.598;2022-12-07T02:45:15;12.00;11.75;7.50
76383;PMS7003;65204;48.606;7.598;2022-12-07T02:45:49;12.75;12.00;7.25
76383;PMS7003;65204;48.606;7.598;2022-12-07T02:46:32;15.75;14.00;10.00
76383;PMS7003;65204;48.606;7.598;2022-12-07T02:47:09;12.00;11.25;7.00
76383;PMS7003;65204;48.606;7.598;2022-12-07T02:47:42;13.00;9.50;6.25
76383;PMS7003;65204;48.606;7.598;2022-12-07T02:48:14;9.50;9.25;6.50
76383;PMS7003;65204;48.606;7.598;2022-12-07T02:48:48;7.00;5.00;3.75
76383;PMS7003;65204;48.606;7.598;2022-12-07T02:49:21;8.00;7.00;3.50
76383;PMS7003;65204;48.606;7.598;2022-12-07T02:49:53;15.50;11.00;7.50
76383;PMS7003;65204;48.606;7.598;2022-12-07T02:50:25;13.25;11.25;8.75
76383;PMS7003;65204;48.606;7.598;2022-12-07T02:50:56;14.00;10.50;7.00
76383;PMS7003;65204;48.606;7.598;2022-12-07T02:51:29;13.33;10.00;7.00
76383;PMS7003;65204;48.606;7.598;2022-12-07T02:52:00;10.50;10.50;6.25
76383;PMS7003;65204;48.606;7.598;2022-12-07T02:52:31;13.33;13.33;8.33
76383;PMS7003;65204;48.606;7.598;2022-12-07T02:53:01;10.00;10.00;8.33
76383;PMS7003;65204;48.606;7.598;2022-12-07T02:53:38;10.00;10.00;6.67
76383;PMS7003;65204;48.606;7.598;2022-12-07T02:54:16;11.50;9.25;8.00
76383;PMS7003;65204;48.606;7.598;2022-12-07T02:54:48;14.00;10.75;6.50
76383;PMS7003;65204;48.606;7.598;2022-12-07T02:55:19;14.00;11.33;8.00
76383;PMS7003;65204;48.606;7.598;2022-12-07T02:55:54;12.00;10.00;7.00
76383;PMS7003;65204;48.606;7.598;2022-12-07T02:56:31;8.67;7.00;4.00
76383;PMS7003;65204;48.606;7.598;2022-12-07T02:57:26;11.25;11.25;8.00
76383;PMS7003;65204;48.606;7.598;2022-12-07T03:00:18;11.00;9.75;6.50
76383;PMS7003;65204;48.606;7.598;2022-12-07T03:00:52;12.75;8.25;4.50
76383;PMS7003;65204;48.606;7.598;2022-12-07T03:01:57;9.50;8.00;5.25
76383;PMS7003;65204;48.606;7.598;2022-12-07T03:02:50;9.50;8.00;6.75
76383;PMS7003;65204;48.606;7.598;2022-12-07T03:03:27;8.75;6.75;5.75
76383;PMS7003;65204;48.606;7.598;2022-12-07T03:04:02;12.75;10.00;6.00
76383;PMS7003;65204;48.606;7.598;2022-12-07T03:05:13;8.00;8.00;5.25
76383;PMS7003;65204;48.606;7.598;2022-12-07T03:06:42;8.75;7.50;5.50
76383;PMS7003;65204;48.606;7.598;2022-12-07T03:08:52;8.00;7.00;5.00
76383;PMS7003;65204;48.606;7.598;2022-12-07T03:09:44;5.50;5.00;4.00
76383;PMS7003;65204;48.606;7.598;2022-12-07T03:11:04;10.00;8.50;5.00
76383;PMS7003;65204;48.606;7.598;2022-12-07T03:11:48;9.00;6.00;5.00
76383;PMS7003;65204;48.606;7.598;2022-12-07T03:12:25;6.00;6.00;3.50
76383;PMS7003;65204;48.606;7.598;2022-12-07T03:13:09;7.50;7.50;4.50
76383;PMS7003;65204;48.606;7.598;2022-12-07T03:13:59;11.00;7.00;4.00
76383;PMS7003;65204;48.606;7.598;2022-12-07T03:14:38;7.00;7.00;5.75
76383;PMS7003;65204;48.606;7.598;2022-12-07T03:15:18;10.00;6.75;4.75
76383;PMS7003;65204;48.606;7.598;2022-12-07T03:16:37;6.50;6.50;4.00
76383;PMS7003;65204;48.606;7.598;2022-12-07T03:17:14;7.75;6.75;5.50
76383;PMS7003;65204;48.606;7.598;2022-12-07T03:17:49;6.25;5.50;4.25
76383;PMS7003;65204;48.606;7.598;2022-12-07T03:18:23;11.00;6.25;5.00
76383;PMS7003;65204;48.606;7.598;2022-12-07T03:19:13;9.00;6.00;5.00
76383;PMS7003;65204;48.606;7.598;2022-12-07T03:19:47;10.00;8.25;4.50
76383;PMS7003;65204;48.606;7.598;2022-12-07T03:20:20;7.25;7.00;4.25
76383;PMS7003;65204;48.606;7.598;2022-12-07T03:20:54;6.75;4.00;3.00
76383;PMS7003;65204;48.606;7.598;2022-12-07T03:21:32;10.00;5.00;4.00
76383;PMS7003;65204;48.606;7.598;2022-12-07T03:22:07;10.33;7.33;5.00
76383;PMS7003;65204;48.606;7.598;2022-12-07T03:22:41;7.00;7.00;5.00
76383;PMS7003;65204;48.606;7.598;2022-12-07T03:23:14;7.00;7.00;5.00
76383;PMS7003;65204;48.606;7.598;2022-12-07T03:23:49;10.25;10.00;5.00
76383;PMS7003;65204;48.606;7.598;2022-12-07T03:24:34;6.00;5.75;5.00
76383;PMS7003;65204;48.606;7.598;2022-12-07T03:25:13;7.50;7.50;5.00
76383;PMS7003;65204;48.606;7.598;2022-12-07T03:25:47;7.50;7.50;5.00
76383;PMS7003;65204;48.606;7.598;2022-12-07T03:26:19;9.00;8.00;5.00
76383;PMS7003;65204;48.606;7.598;2022-12-07T03:27:05;7.50;6.50;6.00
76383;PMS7003;65204;48.606;7.598;2022-12-07T03:27:44;9.00;7.75;5.00
76383;PMS7003;65204;48.606;7.598;2022-12-07T03:28:30;8.00;5.50;5.00
76383;PMS7003;65204;48.606;7.598;2022-12-07T03:29:06;8.00;7.00;4.50
76383;PMS7003;65204;48.606;7.598;2022-12-07T03:29:46;6.25;5.75;4.50